sensor_id;sensor_type;location;lat;lon;timestamp;P1;durP1;ratioP1;P2;durP2;ratioP2
73428;SDS011;61643;49.564;17.412;2023-01-28T00:01:39;40.38;;;14.27;;
73428;SDS011;61643;49.564;17.412;2023-01-28T00:04:04;43.78;;;14.18;;
73428;SDS011;61643;49.564;17.412;2023-01-28T00:06:30;37.30;;;12.97;;
73428;SDS011;61643;49.564;17.412;2023-01-28T00:08:55;36.47;;;13.10;;
73428;SDS011;61643;49.564;17.412;2023-01-28T00:11:21;35.90;;;13.52;;
73428;SDS011;61643;49.564;17.412;2023-01-28T00:13:53;36.60;;;13.93;;
73428;SDS011;61643;49.564;17.412;2023-01-28T00:16:18;37.47;;;13.07;;
73428;SDS011;61643;49.564;17.412;2023-01-28T00:18:46;32.20;;;10.65;;
73428;SDS011;61643;49.564;17.412;2023-01-28T00:21:12;36.28;;;12.68;;
73428;SDS011;61643;49.564;17.412;2023-01-28T00:23:40;33.17;;;12.82;;
73428;SDS011;61643;49.564;17.412;2023-01-28T00:26:11;31.73;;;11.82;;
73428;SDS011;61643;49.564;17.412;2023-01-28T00:28:38;28.25;;;10.90;;
73428;SDS011;61643;49.564;17.412;2023-01-28T00:31:07;26.23;;;9.25;;
73428;SDS011;61643;49.564;17.412;2023-01-28T00:33:35;28.38;;;11.27;;
73428;SDS011;61643;49.564;17.412;2023-01-28T00:36:01;27.95;;;10.50;;
73428;SDS011;61643;49.564;17.412;2023-01-28T00:38:28;28.38;;;10.70;;
73428;SDS011;61643;49.564;17.412;2023-01-28T00:40:53;34.33;;;11.82;;
73428;SDS011;61643;49.564;17.412;2023-01-28T00:43:19;26.42;;;10.95;;
73428;SDS011;61643;49.564;17.412;2023-01-28T00:45:45;30.73;;;11.10;;
73428;SDS011;61643;49.564;17.412;2023-01-28T00:48:10;27.13;;;11.10;;
73428;SDS011;61643;49.564;17.412;2023-01-28T00:50:36;26.33;;;10.10;;
73428;SDS011;61643;49.564;17.412;2023-01-28T00:53:03;25.88;;;9.43;;
73428;SDS011;61643;49.564;17.412;2023-01-28T00:55:28;24.48;;;9.65;;
73428;SDS011;61643;49.564;17.412;2023-01-28T00:57:54;23.77;;;9.50;;
73428;SDS011;61643;49.564;17.412;2023-01-28T01:00:19;21.80;;;7.23;;
73428;SDS011;61643;49.564;17.412;2023-01-28T01:02:49;19.85;;;7.60;;
73428;SDS011;61643;49.564;17.412;2023-01-28T01:05:15;20.60;;;7.50;;
73428;SDS011;61643;49.564;17.412;2023-01-28T01:07:41;25.08;;;8.63;;
73428;SDS011;61643;49.564;17.412;2023-01-28T01:10:07;21.65;;;7.80;;
73428;SDS011;61643;49.564;17.412;2023-01-28T01:12:34;26.98;;;9.93;;
73428;SDS011;61643;49.564;17.412;2023-01-28T01:15:00;18.35;;;7.55;;
73428;SDS011;61643;49.564;17.412;2023-01-28T01:17:28;26.30;;;9.45;;
73428;SDS011;61643;49.564;17.412;2023-01-28T01:19:54;25.17;;;8.55;;
73428;SDS011;61643;49.564;17.412;2023-01-28T01:22:20;19.80;;;8.03;;
73428;SDS011;61643;49.564;17.412;2023-01-28T01:24:46;25.33;;;8.80;;
73428;SDS011;61643;49.564;17.412;2023-01-28T01:27:12;19.90;;;7.22;;
73428;SDS011;61643;49.564;17.412;2023-01-28T01:29:37;26.40;;;8.90;;
73428;SDS011;61643;49.564;17.412;2023-01-28T01:32:03;26.70;;;9.88;;
73428;SDS011;61643;49.564;17.412;2023-01-28T01:34:29;24.27;;;9.00;;
73428;SDS011;61643;49.564;17.412;2023-01-28T01:36:54;12.80;;;6.60;;
73428;SDS011;61643;49.564;17.412;2023-01-28T01:39:19;23.57;;;9.50;;
73428;SDS011;61643;49.564;17.412;2023-01-28T01:41:45;17.67;;;6.43;;
73428;SDS011;61643;49.564;17.412;2023-01-28T01:47:13;22.73;;;8.25;;
73428;SDS011;61643;49.564;17.412;2023-01-28T01:49:40;24.10;;;9.07;;
73428;SDS011;61643;49.564;17.412;2023-01-28T01:52:07;25.48;;;8.75;;
73428;SDS011;61643;49.564;17.412;2023-01-28T01:54:37;25.17;;;8.52;;
73428;SDS011;61643;49.564;17.412;2023-01-28T01:57:05;19.52;;;8.18;;
73428;SDS011;61643;49.564;17.412;2023-01-28T01:59:36;20.73;;;8.02;;
73428;SDS011;61643;49.564;17.412;2023-01-28T02:02:04;21.83;;;8.48;;
73428;SDS011;61643;49.564;17.412;2023-01-28T02:04:34;17.08;;;7.07;;
73428;SDS011;61643;49.564;17.412;2023-01-28T02:07:03;20.65;;;7.80;;
73428;SDS011;61643;49.564;17.412;2023-01-28T02:09:30;19.52;;;7.75;;
73428;SDS011;61643;49.564;17.412;2023-01-28T02:12:00;25.10;;;9.30;;
73428;SDS011;61643;49.564;17.412;2023-01-28T02:14:29;21.42;;;7.47;;
73428;SDS011;61643;49.564;17.412;2023-01-28T02:17:00;22.50;;;7.78;;
73428;SDS011;61643;49.564;17.412;2023-01-28T02:19:28;24.38;;;9.70;;
73428;SDS011;61643;49.564;17.412;2023-01-28T02:24:40;19.05;;;7.15;;
73428;SDS011;61643;49.564;17.412;2023-01-28T02:30:06;21.77;;;8.35;;
73428;SDS011;61643;49.564;17.412;2023-01-28T02:35:28;24.20;;;9.32;;
73428;SDS011;61643;49.564;17.412;2023-01-28T02:38:00;24.50;;;8.95;;
73428;SDS011;61643;49.564;17.412;2023-01-28T02:40:32;25.60;;;10.23;;
73428;SDS011;61643;49.564;17.412;2023-01-28T02:43:31;29.38;;;10.32;;
73428;SDS011;61643;49.564;17.412;2023-01-28T02:45:58;26.88;;;10.75;;
73428;SDS011;61643;49.564;17.412;2023-01-28T02:48:45;19.35;;;7.70;;
73428;SDS011;61643;49.564;17.412;2023-01-28T02:51:17;35.58;;;12.25;;
73428;SDS011;61643;49.564;17.412;2023-01-28T02:53:59;27.02;;;11.52;;
73428;SDS011;61643;49.564;17.412;2023-01-28T02:59:00;30.45;;;13.60;;
73428;SDS011;61643;49.564;17.412;2023-01-28T03:04:52;27.08;;;10.07;;
73428;SDS011;61643;49.564;17.412;2023-01-28T03:07:28;32.13;;;10.98;;
73428;SDS011;61643;49.564;17.412;2023-01-28T03:09:55;26.92;;;10.32;;
73428;SDS011;61643;49.564;17.412;2023-01-28T03:12:28;23.55;;;8.80;;
73428;SDS011;61643;49.564;17.412;2023-01-28T03:15:23;23.00;;;8.43;;
73428;SDS011;61643;49.564;17.412;2023-01-28T03:18:24;26.27;;;8.75;;
73428;SDS011;61643;49.564;17.412;2023-01-28T03:21:21;23.10;;;8.75;;
73428;SDS011;61643;49.564;17.412;2023-01-28T03:24:16;28.13;;;10.23;;
73428;SDS011;61643;49.564;17.412;2023-01-28T03:27:08;25.33;;;11.15;;
73428;SDS011;61643;49.564;17.412;2023-01-28T03:29:53;25.85;;;10.02;;
73428;SDS011;61643;49.564;17.412;2023-01-28T03:32:41;18.75;;;7.13;;
73428;SDS011;61643;49.564;17.412;2023-01-28T03:35:27;32.88;;;11.27;;
73428;SDS011;61643;49.564;17.412;2023-01-28T03:38:15;32.55;;;10.63;;
73428;SDS011;61643;49.564;17.412;2023-01-28T03:40:55;25.80;;;9.88;;
73428;SDS011;61643;49.564;17.412;2023-01-28T03:43:22;31.55;;;10.93;;
73428;SDS011;61643;49.564;17.412;2023-01-28T03:45:48;25.80;;;8.55;;
73428;SDS011;61643;49.564;17.412;2023-01-28T03:48:24;28.85;;;11.40;;
73428;SDS011;61643;49.564;17.412;2023-01-28T03:50:51;32.47;;;11.55;;
73428;SDS011;61643;49.564;17.412;2023-01-28T03:53:18;28.92;;;11.52;;
73428;SDS011;61643;49.564;17.412;2023-01-28T03:55:44;24.98;;;9.40;;
73428;SDS011;61643;49.564;17.412;2023-01-28T03:58:11;30.38;;;11.82;;
73428;SDS011;61643;49.564;17.412;2023-01-28T04:00:37;27.00;;;9.80;;
73428;SDS011;61643;49.564;17.412;2023-01-28T04:03:17;28.02;;;10.43;;
73428;SDS011;61643;49.564;17.412;2023-01-28T04:05:44;25.23;;;9.93;;
73428;SDS011;61643;49.564;17.412;2023-01-28T04:08:21;30.15;;;11.82;;
73428;SDS011;61643;49.564;17.412;2023-01-28T04:10:46;30.27;;;10.50;;
73428;SDS011;61643;49.564;17.412;2023-01-28T04:13:12;23.33;;;11.37;;
73428;SDS011;61643;49.564;17.412;2023-01-28T04:15:37;32.77;;;12.30;;
73428;SDS011;61643;49.564;17.412;2023-01-28T04:18:02;35.90;;;12.43;;
73428;SDS011;61643;49.564;17.412;2023-01-28T04:20:28;33.50;;;12.00;;
73428;SDS011;61643;49.564;17.412;2023-01-28T04:22:54;35.15;;;12.93;;
73428;SDS011;61643;49.564;17.412;2023-01-28T04:25:19;36.40;;;12.93;;
73428;SDS011;61643;49.564;17.412;2023-01-28T04:27:44;24.20;;;9.87;;
73428;SDS011;61643;49.564;17.412;2023-01-28T04:30:10;28.90;;;10.97;;
73428;SDS011;61643;49.564;17.412;2023-01-28T04:32:35;32.95;;;11.40;;
73428;SDS011;61643;49.564;17.412;2023-01-28T04:35:01;35.50;;;11.83;;
73428;SDS011;61643;49.564;17.412;2023-01-28T04:37:26;28.30;;;11.07;;
73428;SDS011;61643;49.564;17.412;2023-01-28T04:39:52;38.63;;;12.63;;
73428;SDS011;61643;49.564;17.412;2023-01-28T04:42:17;29.00;;;11.27;;
73428;SDS011;61643;49.564;17.412;2023-01-28T04:44:43;27.98;;;10.65;;
73428;SDS011;61643;49.564;17.412;2023-01-28T04:47:08;36.77;;;13.30;;
73428;SDS011;61643;49.564;17.412;2023-01-28T04:49:34;29.33;;;10.70;;
73428;SDS011;61643;49.564;17.412;2023-01-28T04:51:59;21.87;;;7.90;;
73428;SDS011;61643;49.564;17.412;2023-01-28T04:54:24;27.90;;;10.83;;
73428;SDS011;61643;49.564;17.412;2023-01-28T04:56:50;31.93;;;10.80;;
73428;SDS011;61643;49.564;17.412;2023-01-28T04:59:15;35.53;;;11.47;;
73428;SDS011;61643;49.564;17.412;2023-01-28T05:01:40;33.07;;;11.70;;
73428;SDS011;61643;49.564;17.412;2023-01-28T05:04:06;31.83;;;11.60;;
73428;SDS011;61643;49.564;17.412;2023-01-28T05:06:32;34.72;;;12.25;;
73428;SDS011;61643;49.564;17.412;2023-01-28T05:08:58;29.42;;;10.57;;
73428;SDS011;61643;49.564;17.412;2023-01-28T05:11:23;29.83;;;11.37;;
73428;SDS011;61643;49.564;17.412;2023-01-28T05:13:49;30.30;;;12.07;;
73428;SDS011;61643;49.564;17.412;2023-01-28T05:16:15;27.15;;;10.55;;
73428;SDS011;61643;49.564;17.412;2023-01-28T05:18:41;30.55;;;11.07;;
73428;SDS011;61643;49.564;17.412;2023-01-28T05:21:06;31.88;;;12.23;;
73428;SDS011;61643;49.564;17.412;2023-01-28T05:23:31;35.15;;;11.43;;
73428;SDS011;61643;49.564;17.412;2023-01-28T05:25:57;31.83;;;11.23;;
73428;SDS011;61643;49.564;17.412;2023-01-28T05:28:22;32.70;;;13.10;;
73428;SDS011;61643;49.564;17.412;2023-01-28T05:30:47;36.57;;;11.90;;
73428;SDS011;61643;49.564;17.412;2023-01-28T05:33:13;42.10;;;15.40;;
73428;SDS011;61643;49.564;17.412;2023-01-28T05:35:38;36.60;;;12.03;;
73428;SDS011;61643;49.564;17.412;2023-01-28T05:38:04;41.33;;;14.30;;
73428;SDS011;61643;49.564;17.412;2023-01-28T05:40:29;37.55;;;13.35;;
73428;SDS011;61643;49.564;17.412;2023-01-28T05:42:55;41.42;;;15.40;;
73428;SDS011;61643;49.564;17.412;2023-01-28T05:45:20;29.63;;;11.13;;
73428;SDS011;61643;49.564;17.412;2023-01-28T05:47:45;38.90;;;14.30;;
73428;SDS011;61643;49.564;17.412;2023-01-28T05:50:11;36.10;;;12.30;;
73428;SDS011;61643;49.564;17.412;2023-01-28T05:52:38;38.38;;;12.55;;
73428;SDS011;61643;49.564;17.412;2023-01-28T05:55:04;40.35;;;16.55;;
73428;SDS011;61643;49.564;17.412;2023-01-28T05:57:30;33.15;;;12.80;;
73428;SDS011;61643;49.564;17.412;2023-01-28T05:59:55;40.72;;;14.25;;
73428;SDS011;61643;49.564;17.412;2023-01-28T06:02:21;43.03;;;15.47;;
73428;SDS011;61643;49.564;17.412;2023-01-28T06:04:46;38.15;;;15.27;;
73428;SDS011;61643;49.564;17.412;2023-01-28T06:07:11;35.73;;;14.53;;
73428;SDS011;61643;49.564;17.412;2023-01-28T06:09:37;35.42;;;13.32;;
73428;SDS011;61643;49.564;17.412;2023-01-28T06:12:03;25.92;;;10.40;;
73428;SDS011;61643;49.564;17.412;2023-01-28T06:14:29;31.45;;;12.20;;
73428;SDS011;61643;49.564;17.412;2023-01-28T06:16:54;38.50;;;14.33;;
73428;SDS011;61643;49.564;17.412;2023-01-28T06:19:20;32.83;;;12.63;;
73428;SDS011;61643;49.564;17.412;2023-01-28T06:21:45;22.93;;;9.63;;
73428;SDS011;61643;49.564;17.412;2023-01-28T06:24:11;38.57;;;13.33;;
73428;SDS011;61643;49.564;17.412;2023-01-28T06:26:37;33.97;;;11.75;;
73428;SDS011;61643;49.564;17.412;2023-01-28T06:29:02;32.87;;;11.93;;
73428;SDS011;61643;49.564;17.412;2023-01-28T06:31:27;35.50;;;12.53;;
73428;SDS011;61643;49.564;17.412;2023-01-28T06:33:53;41.60;;;13.93;;
73428;SDS011;61643;49.564;17.412;2023-01-28T06:36:18;32.43;;;11.53;;
73428;SDS011;61643;49.564;17.412;2023-01-28T06:38:43;35.33;;;12.43;;
73428;SDS011;61643;49.564;17.412;2023-01-28T06:41:09;38.60;;;13.20;;
73428;SDS011;61643;49.564;17.412;2023-01-28T06:43:34;37.53;;;12.87;;
73428;SDS011;61643;49.564;17.412;2023-01-28T06:45:59;36.67;;;13.03;;
73428;SDS011;61643;49.564;17.412;2023-01-28T06:48:25;26.25;;;9.40;;
73428;SDS011;61643;49.564;17.412;2023-01-28T06:50:52;24.52;;;9.30;;
73428;SDS011;61643;49.564;17.412;2023-01-28T06:53:18;33.25;;;12.77;;
73428;SDS011;61643;49.564;17.412;2023-01-28T06:55:43;32.33;;;11.27;;
73428;SDS011;61643;49.564;17.412;2023-01-28T06:58:09;25.00;;;8.10;;
73428;SDS011;61643;49.564;17.412;2023-01-28T07:00:35;25.95;;;8.35;;
73428;SDS011;61643;49.564;17.412;2023-01-28T07:03:00;33.63;;;11.13;;
73428;SDS011;61643;49.564;17.412;2023-01-28T07:05:26;29.30;;;12.07;;
73428;SDS011;61643;49.564;17.412;2023-01-28T07:07:51;27.45;;;10.07;;
73428;SDS011;61643;49.564;17.412;2023-01-28T07:10:17;30.38;;;11.70;;
73428;SDS011;61643;49.564;17.412;2023-01-28T07:12:44;35.65;;;11.10;;
73428;SDS011;61643;49.564;17.412;2023-01-28T07:15:09;30.38;;;11.68;;
73428;SDS011;61643;49.564;17.412;2023-01-28T07:17:39;26.25;;;8.88;;
73428;SDS011;61643;49.564;17.412;2023-01-28T07:20:08;20.73;;;7.78;;
73428;SDS011;61643;49.564;17.412;2023-01-28T07:22:37;26.02;;;9.38;;
73428;SDS011;61643;49.564;17.412;2023-01-28T07:25:05;23.67;;;8.65;;
73428;SDS011;61643;49.564;17.412;2023-01-28T07:27:31;28.17;;;9.75;;
73428;SDS011;61643;49.564;17.412;2023-01-28T07:29:56;28.92;;;11.15;;
73428;SDS011;61643;49.564;17.412;2023-01-28T07:32:22;33.70;;;10.13;;
73428;SDS011;61643;49.564;17.412;2023-01-28T07:34:47;20.80;;;7.20;;
73428;SDS011;61643;49.564;17.412;2023-01-28T07:37:13;28.00;;;9.80;;
73428;SDS011;61643;49.564;17.412;2023-01-28T07:39:39;21.10;;;8.13;;
73428;SDS011;61643;49.564;17.412;2023-01-28T07:42:04;23.13;;;8.70;;
73428;SDS011;61643;49.564;17.412;2023-01-28T07:44:30;24.20;;;8.40;;
73428;SDS011;61643;49.564;17.412;2023-01-28T07:46:55;23.45;;;7.53;;
73428;SDS011;61643;49.564;17.412;2023-01-28T07:49:21;27.13;;;8.53;;
73428;SDS011;61643;49.564;17.412;2023-01-28T07:51:46;18.17;;;7.05;;
73428;SDS011;61643;49.564;17.412;2023-01-28T07:54:14;21.67;;;8.15;;
73428;SDS011;61643;49.564;17.412;2023-01-28T07:56:40;20.80;;;7.10;;
73428;SDS011;61643;49.564;17.412;2023-01-28T07:59:05;20.70;;;7.20;;
73428;SDS011;61643;49.564;17.412;2023-01-28T08:01:30;25.87;;;9.40;;
73428;SDS011;61643;49.564;17.412;2023-01-28T08:03:56;16.13;;;6.27;;
73428;SDS011;61643;49.564;17.412;2023-01-28T08:06:21;21.53;;;7.60;;
73428;SDS011;61643;49.564;17.412;2023-01-28T08:08:46;22.40;;;8.30;;
73428;SDS011;61643;49.564;17.412;2023-01-28T08:11:12;23.63;;;9.45;;
73428;SDS011;61643;49.564;17.412;2023-01-28T08:13:38;22.13;;;7.57;;
73428;SDS011;61643;49.564;17.412;2023-01-28T08:16:03;22.48;;;8.38;;
73428;SDS011;61643;49.564;17.412;2023-01-28T08:18:29;27.48;;;9.10;;
73428;SDS011;61643;49.564;17.412;2023-01-28T08:20:55;23.95;;;7.78;;
73428;SDS011;61643;49.564;17.412;2023-01-28T08:23:21;20.20;;;7.35;;
73428;SDS011;61643;49.564;17.412;2023-01-28T08:25:47;27.60;;;9.25;;
73428;SDS011;61643;49.564;17.412;2023-01-28T08:28:13;23.85;;;8.07;;
73428;SDS011;61643;49.564;17.412;2023-01-28T08:30:39;24.17;;;9.20;;
73428;SDS011;61643;49.564;17.412;2023-01-28T08:33:05;20.33;;;7.72;;
73428;SDS011;61643;49.564;17.412;2023-01-28T08:35:32;23.33;;;8.32;;
73428;SDS011;61643;49.564;17.412;2023-01-28T08:37:59;21.85;;;7.82;;
73428;SDS011;61643;49.564;17.412;2023-01-28T08:40:25;19.13;;;6.82;;
73428;SDS011;61643;49.564;17.412;2023-01-28T08:42:52;27.40;;;9.70;;
73428;SDS011;61643;49.564;17.412;2023-01-28T08:45:18;20.63;;;8.15;;
73428;SDS011;61643;49.564;17.412;2023-01-28T08:47:50;23.50;;;7.95;;
73428;SDS011;61643;49.564;17.412;2023-01-28T08:50:17;18.27;;;6.68;;
73428;SDS011;61643;49.564;17.412;2023-01-28T08:52:44;19.98;;;7.28;;
73428;SDS011;61643;49.564;17.412;2023-01-28T08:55:11;16.58;;;7.10;;
73428;SDS011;61643;49.564;17.412;2023-01-28T08:57:37;17.05;;;7.32;;
73428;SDS011;61643;49.564;17.412;2023-01-28T09:00:03;20.38;;;8.48;;
73428;SDS011;61643;49.564;17.412;2023-01-28T09:02:29;20.77;;;9.25;;
73428;SDS011;61643;49.564;17.412;2023-01-28T09:04:54;20.07;;;7.30;;
73428;SDS011;61643;49.564;17.412;2023-01-28T09:07:20;22.57;;;7.90;;
73428;SDS011;61643;49.564;17.412;2023-01-28T09:09:45;24.27;;;9.07;;
73428;SDS011;61643;49.564;17.412;2023-01-28T09:12:10;22.97;;;8.23;;
73428;SDS011;61643;49.564;17.412;2023-01-28T09:14:36;19.45;;;8.00;;
73428;SDS011;61643;49.564;17.412;2023-01-28T09:17:03;20.47;;;8.10;;
73428;SDS011;61643;49.564;17.412;2023-01-28T09:19:29;15.20;;;6.60;;
73428;SDS011;61643;49.564;17.412;2023-01-28T09:21:54;18.80;;;6.60;;
73428;SDS011;61643;49.564;17.412;2023-01-28T09:24:20;17.90;;;7.63;;
73428;SDS011;61643;49.564;17.412;2023-01-28T09:26:47;24.38;;;9.18;;
73428;SDS011;61643;49.564;17.412;2023-01-28T09:29:13;15.20;;;6.07;;
73428;SDS011;61643;49.564;17.412;2023-01-28T09:31:39;23.93;;;8.03;;
73428;SDS011;61643;49.564;17.412;2023-01-28T09:34:05;23.95;;;8.98;;
73428;SDS011;61643;49.564;17.412;2023-01-28T09:36:30;17.85;;;7.40;;
73428;SDS011;61643;49.564;17.412;2023-01-28T09:38:56;18.27;;;6.78;;
73428;SDS011;61643;49.564;17.412;2023-01-28T09:41:24;19.58;;;7.55;;
73428;SDS011;61643;49.564;17.412;2023-01-28T09:46:38;19.85;;;7.45;;
73428;SDS011;61643;49.564;17.412;2023-01-28T09:49:20;14.45;;;5.60;;
73428;SDS011;61643;49.564;17.412;2023-01-28T09:51:56;14.95;;;4.82;;
73428;SDS011;61643;49.564;17.412;2023-01-28T09:57:01;18.25;;;6.57;;
73428;SDS011;61643;49.564;17.412;2023-01-28T09:59:34;16.58;;;7.03;;
73428;SDS011;61643;49.564;17.412;2023-01-28T10:02:14;15.55;;;7.03;;
73428;SDS011;61643;49.564;17.412;2023-01-28T10:07:49;22.65;;;8.85;;
73428;SDS011;61643;49.564;17.412;2023-01-28T10:10:39;21.40;;;7.60;;
73428;SDS011;61643;49.564;17.412;2023-01-28T10:16:23;25.70;;;9.38;;
73428;SDS011;61643;49.564;17.412;2023-01-28T10:19:09;28.15;;;10.40;;
73428;SDS011;61643;49.564;17.412;2023-01-28T10:21:42;27.08;;;9.02;;
73428;SDS011;61643;49.564;17.412;2023-01-28T10:24:27;27.08;;;11.98;;
73428;SDS011;61643;49.564;17.412;2023-01-28T10:27:01;29.15;;;11.73;;
73428;SDS011;61643;49.564;17.412;2023-01-28T10:29:33;22.35;;;9.05;;
73428;SDS011;61643;49.564;17.412;2023-01-28T10:34:43;22.23;;;8.00;;
73428;SDS011;61643;49.564;17.412;2023-01-28T10:37:09;26.83;;;10.27;;
73428;SDS011;61643;49.564;17.412;2023-01-28T10:39:39;27.15;;;8.18;;
73428;SDS011;61643;49.564;17.412;2023-01-28T10:42:19;17.08;;;7.45;;
73428;SDS011;61643;49.564;17.412;2023-01-28T10:44:51;24.52;;;10.18;;
73428;SDS011;61643;49.564;17.412;2023-01-28T10:47:25;34.40;;;12.23;;
73428;SDS011;61643;49.564;17.412;2023-01-28T10:49:54;21.58;;;9.23;;
73428;SDS011;61643;49.564;17.412;2023-01-28T10:52:23;22.45;;;8.05;;
73428;SDS011;61643;49.564;17.412;2023-01-28T10:54:57;19.10;;;7.77;;
73428;SDS011;61643;49.564;17.412;2023-01-28T10:57:27;15.77;;;6.00;;
73428;SDS011;61643;49.564;17.412;2023-01-28T10:59:52;31.08;;;9.18;;
73428;SDS011;61643;49.564;17.412;2023-01-28T11:05:00;32.38;;;11.65;;
73428;SDS011;61643;49.564;17.412;2023-01-28T11:07:33;29.48;;;10.82;;
73428;SDS011;61643;49.564;17.412;2023-01-28T11:09:58;26.30;;;9.60;;
73428;SDS011;61643;49.564;17.412;2023-01-28T11:12:25;28.08;;;9.75;;
73428;SDS011;61643;49.564;17.412;2023-01-28T11:14:58;21.13;;;7.95;;
73428;SDS011;61643;49.564;17.412;2023-01-28T11:17:29;27.80;;;10.95;;
73428;SDS011;61643;49.564;17.412;2023-01-28T11:19:58;25.48;;;9.65;;
73428;SDS011;61643;49.564;17.412;2023-01-28T11:22:37;24.42;;;8.35;;
73428;SDS011;61643;49.564;17.412;2023-01-28T11:25:13;28.92;;;10.43;;
73428;SDS011;61643;49.564;17.412;2023-01-28T11:27:45;34.08;;;13.00;;
73428;SDS011;61643;49.564;17.412;2023-01-28T11:30:25;20.70;;;8.70;;
73428;SDS011;61643;49.564;17.412;2023-01-28T11:33:01;27.27;;;8.98;;
73428;SDS011;61643;49.564;17.412;2023-01-28T11:35:36;15.88;;;7.05;;
73428;SDS011;61643;49.564;17.412;2023-01-28T11:38:02;22.73;;;8.50;;
73428;SDS011;61643;49.564;17.412;2023-01-28T11:40:27;24.50;;;9.77;;
73428;SDS011;61643;49.564;17.412;2023-01-28T11:42:53;24.83;;;8.65;;
73428;SDS011;61643;49.564;17.412;2023-01-28T11:45:34;31.33;;;11.25;;
73428;SDS011;61643;49.564;17.412;2023-01-28T11:48:19;31.70;;;10.60;;
73428;SDS011;61643;49.564;17.412;2023-01-28T11:53:43;24.35;;;9.10;;
73428;SDS011;61643;49.564;17.412;2023-01-28T11:56:22;35.53;;;13.48;;
73428;SDS011;61643;49.564;17.412;2023-01-28T11:59:15;32.45;;;11.85;;
73428;SDS011;61643;49.564;17.412;2023-01-28T12:07:18;35.83;;;12.60;;
73428;SDS011;61643;49.564;17.412;2023-01-28T12:21:30;32.47;;;12.10;;
73428;SDS011;61643;49.564;17.412;2023-01-28T12:29:41;30.83;;;11.95;;
73428;SDS011;61643;49.564;17.412;2023-01-28T12:40:18;45.33;;;16.58;;
73428;SDS011;61643;49.564;17.412;2023-01-28T12:43:00;33.17;;;12.82;;
73428;SDS011;61643;49.564;17.412;2023-01-28T12:45:49;32.40;;;11.63;;
73428;SDS011;61643;49.564;17.412;2023-01-28T12:48:25;44.40;;;14.85;;
73428;SDS011;61643;49.564;17.412;2023-01-28T12:51:02;36.80;;;12.75;;
73428;SDS011;61643;49.564;17.412;2023-01-28T12:56:15;28.30;;;10.77;;
73428;SDS011;61643;49.564;17.412;2023-01-28T12:58:46;34.33;;;13.07;;
73428;SDS011;61643;49.564;17.412;2023-01-28T13:01:20;34.53;;;11.82;;
73428;SDS011;61643;49.564;17.412;2023-01-28T13:06:55;31.20;;;11.63;;
73428;SDS011;61643;49.564;17.412;2023-01-28T13:09:25;33.40;;;11.77;;
73428;SDS011;61643;49.564;17.412;2023-01-28T13:11:53;31.13;;;11.85;;
73428;SDS011;61643;49.564;17.412;2023-01-28T13:14:24;25.17;;;10.13;;
73428;SDS011;61643;49.564;17.412;2023-01-28T13:16:54;31.77;;;12.35;;
73428;SDS011;61643;49.564;17.412;2023-01-28T13:19:24;32.13;;;11.63;;
73428;SDS011;61643;49.564;17.412;2023-01-28T13:22:08;34.55;;;11.57;;
73428;SDS011;61643;49.564;17.412;2023-01-28T13:24:35;22.85;;;10.38;;
73428;SDS011;61643;49.564;17.412;2023-01-28T13:27:09;21.58;;;8.88;;
73428;SDS011;61643;49.564;17.412;2023-01-28T13:29:36;27.60;;;11.98;;
73428;SDS011;61643;49.564;17.412;2023-01-28T13:32:23;28.60;;;10.32;;
73428;SDS011;61643;49.564;17.412;2023-01-28T13:34:56;42.65;;;13.98;;
73428;SDS011;61643;49.564;17.412;2023-01-28T13:37:28;27.90;;;10.88;;
73428;SDS011;61643;49.564;17.412;2023-01-28T13:40:42;24.98;;;10.05;;
73428;SDS011;61643;49.564;17.412;2023-01-28T13:43:26;24.77;;;10.77;;
73428;SDS011;61643;49.564;17.412;2023-01-28T13:45:58;27.50;;;9.60;;
73428;SDS011;61643;49.564;17.412;2023-01-28T13:48:34;24.15;;;8.90;;
73428;SDS011;61643;49.564;17.412;2023-01-28T13:51:11;26.35;;;9.32;;
73428;SDS011;61643;49.564;17.412;2023-01-28T13:54:18;30.52;;;11.40;;
73428;SDS011;61643;49.564;17.412;2023-01-28T14:08:06;27.25;;;8.43;;
73428;SDS011;61643;49.564;17.412;2023-01-28T14:10:15;25.13;;;9.45;;
73428;SDS011;61643;49.564;17.412;2023-01-28T14:12:48;23.38;;;9.13;;
73428;SDS011;61643;49.564;17.412;2023-01-28T14:15:51;30.85;;;9.73;;
73428;SDS011;61643;49.564;17.412;2023-01-28T14:18:39;23.00;;;9.48;;
73428;SDS011;61643;49.564;17.412;2023-01-28T14:21:11;39.08;;;14.55;;
73428;SDS011;61643;49.564;17.412;2023-01-28T14:23:43;27.92;;;10.18;;
73428;SDS011;61643;49.564;17.412;2023-01-28T14:32:18;27.80;;;10.02;;
73428;SDS011;61643;49.564;17.412;2023-01-28T14:34:45;29.10;;;10.45;;
73428;SDS011;61643;49.564;17.412;2023-01-28T14:37:17;33.08;;;11.45;;
73428;SDS011;61643;49.564;17.412;2023-01-28T14:42:41;24.63;;;8.15;;
73428;SDS011;61643;49.564;17.412;2023-01-28T14:59:41;31.60;;;12.10;;
73428;SDS011;61643;49.564;17.412;2023-01-28T15:01:53;24.27;;;9.43;;
73428;SDS011;61643;49.564;17.412;2023-01-28T15:04:27;33.85;;;12.27;;
73428;SDS011;61643;49.564;17.412;2023-01-28T15:06:55;34.83;;;12.57;;
73428;SDS011;61643;49.564;17.412;2023-01-28T15:09:21;25.17;;;7.97;;
73428;SDS011;61643;49.564;17.412;2023-01-28T15:11:49;25.27;;;9.63;;
73428;SDS011;61643;49.564;17.412;2023-01-28T15:14:24;35.25;;;12.63;;
73428;SDS011;61643;49.564;17.412;2023-01-28T15:16:51;35.55;;;14.00;;
73428;SDS011;61643;49.564;17.412;2023-01-28T15:19:17;32.67;;;12.02;;
73428;SDS011;61643;49.564;17.412;2023-01-28T15:21:53;30.38;;;11.30;;
73428;SDS011;61643;49.564;17.412;2023-01-28T15:24:22;35.67;;;12.30;;
73428;SDS011;61643;49.564;17.412;2023-01-28T15:26:48;39.03;;;15.13;;
73428;SDS011;61643;49.564;17.412;2023-01-28T15:29:30;31.27;;;11.70;;
73428;SDS011;61643;49.564;17.412;2023-01-28T15:32:00;34.03;;;13.25;;
73428;SDS011;61643;49.564;17.412;2023-01-28T15:34:26;36.05;;;13.63;;
73428;SDS011;61643;49.564;17.412;2023-01-28T15:37:03;35.72;;;12.13;;
73428;SDS011;61643;49.564;17.412;2023-01-28T15:39:28;46.25;;;16.83;;
73428;SDS011;61643;49.564;17.412;2023-01-28T15:41:55;50.40;;;18.15;;
73428;SDS011;61643;49.564;17.412;2023-01-28T15:46:54;36.28;;;14.60;;
73428;SDS011;61643;49.564;17.412;2023-01-28T15:49:21;24.60;;;10.15;;
73428;SDS011;61643;49.564;17.412;2023-01-28T15:51:50;34.65;;;14.98;;
73428;SDS011;61643;49.564;17.412;2023-01-28T15:54:15;45.03;;;16.20;;
73428;SDS011;61643;49.564;17.412;2023-01-28T15:56:41;37.22;;;12.95;;
73428;SDS011;61643;49.564;17.412;2023-01-28T15:59:28;35.70;;;14.02;;
73428;SDS011;61643;49.564;17.412;2023-01-28T16:07:23;42.03;;;15.85;;
73428;SDS011;61643;49.564;17.412;2023-01-28T16:09:50;34.47;;;12.98;;
73428;SDS011;61643;49.564;17.412;2023-01-28T16:12:17;45.70;;;17.58;;
73428;SDS011;61643;49.564;17.412;2023-01-28T16:14:47;43.88;;;15.93;;
73428;SDS011;61643;49.564;17.412;2023-01-28T16:17:16;37.95;;;12.55;;
73428;SDS011;61643;49.564;17.412;2023-01-28T16:19:46;40.47;;;15.82;;
73428;SDS011;61643;49.564;17.412;2023-01-28T16:22:17;37.83;;;13.40;;
73428;SDS011;61643;49.564;17.412;2023-01-28T16:24:48;34.17;;;12.35;;